Terminal Aerodrome Forecast
Issued by NWS Spokane, WA

Home | Current Version | Previous Version | Text Only | Print | Product List | Glossary On
Versions: 1 2 3 4 5 6 7 8 9 10 11 12
000
FTUS46 KOTX 312324
TAFEAT
TAF
KEAT 312324Z 0100/0124 12007KT P6SM FEW080 SCT100
     FM010300 30014G20KT P6SM FEW100 SCT200
     FM011000 30012KT P6SM BKN200
     FM012000 30007KT P6SM SCT100 BKN150=

USA.gov is the U.S. government's official web portal to all federal, state and local government web resources and services.